sensor_id;sensor_type;location;lat;lon;timestamp;temperature;humidity
78896;HTU21D;68284;59.124;37.910;2023-04-25T00:00:35;13.04;47.33
78896;HTU21D;68284;59.124;37.910;2023-04-25T00:03:04;13.03;47.37
78896;HTU21D;68284;59.124;37.910;2023-04-25T00:05:47;13.03;47.57
78896;HTU21D;68284;59.124;37.910;2023-04-25T00:08:24;13.01;47.41
78896;HTU21D;68284;59.124;37.910;2023-04-25T00:11:00;13.00;47.41
78896;HTU21D;68284;59.124;37.910;2023-04-25T00:13:27;12.99;47.51
78896;HTU21D;68284;59.124;37.910;2023-04-25T00:15:57;12.95;47.60
78896;HTU21D;68284;59.124;37.910;2023-04-25T00:18:27;12.92;47.70
78896;HTU21D;68284;59.124;37.910;2023-04-25T00:21:03;12.89;47.81
78896;HTU21D;68284;59.124;37.910;2023-04-25T00:23:33;12.87;47.94
78896;HTU21D;68284;59.124;37.910;2023-04-25T00:26:02;12.84;47.98
78896;HTU21D;68284;59.124;37.910;2023-04-25T00:28:30;12.81;48.05
78896;HTU21D;68284;59.124;37.910;2023-04-25T00:31:03;12.79;48.15
78896;HTU21D;68284;59.124;37.910;2023-04-25T00:33:30;12.74;48.28
78896;HTU21D;68284;59.124;37.910;2023-04-25T00:35:57;12.72;48.37
78896;HTU21D;68284;59.124;37.910;2023-04-25T00:38:24;12.70;48.44
78896;HTU21D;68284;59.124;37.910;2023-04-25T00:40:54;12.65;48.45
78896;HTU21D;68284;59.124;37.910;2023-04-25T00:43:27;12.63;48.57
78896;HTU21D;68284;59.124;37.910;2023-04-25T00:45:57;12.63;48.60
78896;HTU21D;68284;59.124;37.910;2023-04-25T00:48:34;12.61;48.59
78896;HTU21D;68284;59.124;37.910;2023-04-25T00:51:05;12.63;48.61
78896;HTU21D;68284;59.124;37.910;2023-04-25T00:53:43;12.63;48.64
78896;HTU21D;68284;59.124;37.910;2023-04-25T00:56:16;12.61;48.63
78896;HTU21D;68284;59.124;37.910;2023-04-25T00:58:43;12.61;48.68
78896;HTU21D;68284;59.124;37.910;2023-04-25T01:01:10;12.60;48.76
78896;HTU21D;68284;59.124;37.910;2023-04-25T01:03:39;12.57;48.58
78896;HTU21D;68284;59.124;37.910;2023-04-25T01:06:12;12.55;48.73
78896;HTU21D;68284;59.124;37.910;2023-04-25T01:08:51;12.50;49.07
78896;HTU21D;68284;59.124;37.910;2023-04-25T01:11:22;12.49;48.97
78896;HTU21D;68284;59.124;37.910;2023-04-25T01:13:54;12.47;49.11
78896;HTU21D;68284;59.124;37.910;2023-04-25T01:16:24;12.45;49.22
78896;HTU21D;68284;59.124;37.910;2023-04-25T01:18:57;12.42;49.31
78896;HTU21D;68284;59.124;37.910;2023-04-25T01:21:30;12.42;49.35
78896;HTU21D;68284;59.124;37.910;2023-04-25T01:24:07;12.41;49.39
78896;HTU21D;68284;59.124;37.910;2023-04-25T01:26:45;12.38;49.40
78896;HTU21D;68284;59.124;37.910;2023-04-25T01:29:31;12.37;49.49
78896;HTU21D;68284;59.124;37.910;2023-04-25T01:32:36;12.35;49.47
78896;HTU21D;68284;59.124;37.910;2023-04-25T01:35:14;12.34;49.59
78896;HTU21D;68284;59.124;37.910;2023-04-25T01:37:46;12.34;49.62
78896;HTU21D;68284;59.124;37.910;2023-04-25T01:40:21;12.35;49.70
78896;HTU21D;68284;59.124;37.910;2023-04-25T01:42:58;12.36;49.63
78896;HTU21D;68284;59.124;37.910;2023-04-25T01:45:34;12.37;49.41
78896;HTU21D;68284;59.124;37.910;2023-04-25T01:48:15;12.40;49.50
78896;HTU21D;68284;59.124;37.910;2023-04-25T01:50:45;12.40;49.64
78896;HTU21D;68284;59.124;37.910;2023-04-25T01:53:22;12.38;49.71
78896;HTU21D;68284;59.124;37.910;2023-04-25T01:56:05;12.38;49.71
78896;HTU21D;68284;59.124;37.910;2023-04-25T01:58:51;12.43;49.72
78896;HTU21D;68284;59.124;37.910;2023-04-25T02:01:22;12.47;49.72
78896;HTU21D;68284;59.124;37.910;2023-04-25T02:04:07;12.51;49.64
78896;HTU21D;68284;59.124;37.910;2023-04-25T02:06:45;12.57;49.61
78896;HTU21D;68284;59.124;37.910;2023-04-25T02:09:17;12.63;49.49
78896;HTU21D;68284;59.124;37.910;2023-04-25T02:11:53;12.71;49.34
78896;HTU21D;68284;59.124;37.910;2023-04-25T02:14:38;12.78;49.16
78896;HTU21D;68284;59.124;37.910;2023-04-25T02:17:15;12.84;49.03
78896;HTU21D;68284;59.124;37.910;2023-04-25T02:19:46;12.90;48.92
78896;HTU21D;68284;59.124;37.910;2023-04-25T02:22:19;12.96;48.84
78896;HTU21D;68284;59.124;37.910;2023-04-25T02:24:48;13.00;48.75
78896;HTU21D;68284;59.124;37.910;2023-04-25T02:27:22;13.04;48.67
78896;HTU21D;68284;59.124;37.910;2023-04-25T02:30:01;13.06;48.63
78896;HTU21D;68284;59.124;37.910;2023-04-25T02:32:31;13.06;48.64
78896;HTU21D;68284;59.124;37.910;2023-04-25T02:35:06;13.08;48.68
78896;HTU21D;68284;59.124;37.910;2023-04-25T02:37:33;13.11;48.68
78896;HTU21D;68284;59.124;37.910;2023-04-25T02:40:11;13.12;48.81
78896;HTU21D;68284;59.124;37.910;2023-04-25T02:42:39;13.11;48.82
78896;HTU21D;68284;59.124;37.910;2023-04-25T02:45:06;13.12;48.88
78896;HTU21D;68284;59.124;37.910;2023-04-25T02:47:37;13.10;48.95
78896;HTU21D;68284;59.124;37.910;2023-04-25T02:50:08;13.08;49.02
78896;HTU21D;68284;59.124;37.910;2023-04-25T02:52:51;13.05;49.09
78896;HTU21D;68284;59.124;37.910;2023-04-25T02:55:33;13.05;49.18
78896;HTU21D;68284;59.124;37.910;2023-04-25T02:58:09;13.04;49.22
78896;HTU21D;68284;59.124;37.910;2023-04-25T03:00:44;13.05;49.27
78896;HTU21D;68284;59.124;37.910;2023-04-25T03:03:15;13.06;49.24
78896;HTU21D;68284;59.124;37.910;2023-04-25T03:05:45;13.09;49.21
78896;HTU21D;68284;59.124;37.910;2023-04-25T03:08:17;13.10;49.11
78896;HTU21D;68284;59.124;37.910;2023-04-25T03:10:52;13.16;49.01
78896;HTU21D;68284;59.124;37.910;2023-04-25T03:13:26;13.19;48.88
78896;HTU21D;68284;59.124;37.910;2023-04-25T03:16:03;13.22;48.80
78896;HTU21D;68284;59.124;37.910;2023-04-25T03:18:40;13.24;48.76
78896;HTU21D;68284;59.124;37.910;2023-04-25T03:21:14;13.29;48.73
78896;HTU21D;68284;59.124;37.910;2023-04-25T03:23:53;13.31;48.66
78896;HTU21D;68284;59.124;37.910;2023-04-25T03:26:22;13.32;48.68
78896;HTU21D;68284;59.124;37.910;2023-04-25T03:28:56;13.33;48.66
78896;HTU21D;68284;59.124;37.910;2023-04-25T03:31:24;13.34;48.63
78896;HTU21D;68284;59.124;37.910;2023-04-25T03:34:02;13.34;48.57
78896;HTU21D;68284;59.124;37.910;2023-04-25T03:36:52;13.33;48.53
78896;HTU21D;68284;59.124;37.910;2023-04-25T03:39:27;13.33;48.57
78896;HTU21D;68284;59.124;37.910;2023-04-25T03:41:58;13.33;48.63
78896;HTU21D;68284;59.124;37.910;2023-04-25T03:44:25;13.36;48.64
78896;HTU21D;68284;59.124;37.910;2023-04-25T03:46:53;13.36;48.65
78896;HTU21D;68284;59.124;37.910;2023-04-25T03:49:21;13.38;48.72
78896;HTU21D;68284;59.124;37.910;2023-04-25T03:52:05;13.41;48.77
78896;HTU21D;68284;59.124;37.910;2023-04-25T03:54:44;13.45;48.76
78896;HTU21D;68284;59.124;37.910;2023-04-25T03:57:21;13.50;48.73
78896;HTU21D;68284;59.124;37.910;2023-04-25T03:59:48;13.54;48.81
78896;HTU21D;68284;59.124;37.910;2023-04-25T04:02:17;13.62;48.88
78896;HTU21D;68284;59.124;37.910;2023-04-25T04:04:59;13.69;48.87
78896;HTU21D;68284;59.124;37.910;2023-04-25T04:08:03;13.75;48.65
78896;HTU21D;68284;59.124;37.910;2023-04-25T04:11:02;13.82;48.55
78896;HTU21D;68284;59.124;37.910;2023-04-25T04:13:46;13.83;48.53
78896;HTU21D;68284;59.124;37.910;2023-04-25T04:16:21;13.86;48.53
78896;HTU21D;68284;59.124;37.910;2023-04-25T04:18:56;13.91;48.47
78896;HTU21D;68284;59.124;37.910;2023-04-25T04:22:16;13.96;48.26
78896;HTU21D;68284;59.124;37.910;2023-04-25T04:25:16;14.01;48.09
78896;HTU21D;68284;59.124;37.910;2023-04-25T04:28:08;14.05;47.97
78896;HTU21D;68284;59.124;37.910;2023-04-25T04:30:52;14.13;47.91
78896;HTU21D;68284;59.124;37.910;2023-04-25T04:33:24;14.23;47.81
78896;HTU21D;68284;59.124;37.910;2023-04-25T04:36:09;14.35;47.67
78896;HTU21D;68284;59.124;37.910;2023-04-25T04:38:42;14.48;47.56
78896;HTU21D;68284;59.124;37.910;2023-04-25T04:41:28;14.60;47.26
78896;HTU21D;68284;59.124;37.910;2023-04-25T04:44:35;14.69;46.97
78896;HTU21D;68284;59.124;37.910;2023-04-25T04:47:28;14.73;46.78
78896;HTU21D;68284;59.124;37.910;2023-04-25T04:50:42;14.83;46.55
78896;HTU21D;68284;59.124;37.910;2023-04-25T04:53:28;14.91;46.31
78896;HTU21D;68284;59.124;37.910;2023-04-25T04:56:25;14.97;46.07
78896;HTU21D;68284;59.124;37.910;2023-04-25T04:59:16;15.00;45.94
78896;HTU21D;68284;59.124;37.910;2023-04-25T05:02:02;15.06;45.86
78896;HTU21D;68284;59.124;37.910;2023-04-25T05:05:19;15.18;45.76
78896;HTU21D;68284;59.124;37.910;2023-04-25T05:08:20;15.34;45.65
78896;HTU21D;68284;59.124;37.910;2023-04-25T05:12:02;15.55;45.32
78896;HTU21D;68284;59.124;37.910;2023-04-25T05:14:51;15.71;44.95
78896;HTU21D;68284;59.124;37.910;2023-04-25T05:17:55;15.86;44.69
78896;HTU21D;68284;59.124;37.910;2023-04-25T05:20:45;15.99;44.48
78896;HTU21D;68284;59.124;37.910;2023-04-25T05:23:47;16.11;44.29
78896;HTU21D;68284;59.124;37.910;2023-04-25T05:26:33;16.22;44.16
78896;HTU21D;68284;59.124;37.910;2023-04-25T05:29:32;16.35;43.96
78896;HTU21D;68284;59.124;37.910;2023-04-25T05:32:42;16.48;43.64
78896;HTU21D;68284;59.124;37.910;2023-04-25T05:35:21;16.54;43.33
78896;HTU21D;68284;59.124;37.910;2023-04-25T05:37:51;16.58;43.11
78896;HTU21D;68284;59.124;37.910;2023-04-25T05:40:28;16.62;42.90
78896;HTU21D;68284;59.124;37.910;2023-04-25T05:43:08;16.70;42.71
78896;HTU21D;68284;59.124;37.910;2023-04-25T05:46:02;16.79;42.43
78896;HTU21D;68284;59.124;37.910;2023-04-25T05:49:16;16.89;42.00
78896;HTU21D;68284;59.124;37.910;2023-04-25T05:52:46;16.96;41.87
78896;HTU21D;68284;59.124;37.910;2023-04-25T05:55:38;16.95;41.66
78896;HTU21D;68284;59.124;37.910;2023-04-25T05:58:39;16.93;41.61
78896;HTU21D;68284;59.124;37.910;2023-04-25T06:01:20;16.93;41.65
78896;HTU21D;68284;59.124;37.910;2023-04-25T06:04:10;16.96;41.65
78896;HTU21D;68284;59.124;37.910;2023-04-25T06:06:44;17.02;41.49
78896;HTU21D;68284;59.124;37.910;2023-04-25T06:09:13;17.10;41.33
78896;HTU21D;68284;59.124;37.910;2023-04-25T06:11:45;17.16;41.24
78896;HTU21D;68284;59.124;37.910;2023-04-25T06:14:16;17.19;41.26
78896;HTU21D;68284;59.124;37.910;2023-04-25T06:16:49;17.24;41.19
78896;HTU21D;68284;59.124;37.910;2023-04-25T06:19:20;17.31;41.12
78896;HTU21D;68284;59.124;37.910;2023-04-25T06:22:01;17.38;40.98
78896;HTU21D;68284;59.124;37.910;2023-04-25T06:24:42;17.48;40.80
78896;HTU21D;68284;59.124;37.910;2023-04-25T06:27:27;17.63;40.65
78896;HTU21D;68284;59.124;37.910;2023-04-25T06:30:12;17.83;40.32
78896;HTU21D;68284;59.124;37.910;2023-04-25T06:32:43;17.98;39.94
78896;HTU21D;68284;59.124;37.910;2023-04-25T06:35:19;18.11;39.65
78896;HTU21D;68284;59.124;37.910;2023-04-25T06:37:58;18.18;39.43
78896;HTU21D;68284;59.124;37.910;2023-04-25T06:40:34;18.22;39.35
78896;HTU21D;68284;59.124;37.910;2023-04-25T06:43:12;18.28;39.39
78896;HTU21D;68284;59.124;37.910;2023-04-25T06:46:23;18.36;39.30
78896;HTU21D;68284;59.124;37.910;2023-04-25T06:48:52;18.44;39.04
78896;HTU21D;68284;59.124;37.910;2023-04-25T06:51:20;18.47;38.84
78896;HTU21D;68284;59.124;37.910;2023-04-25T06:53:58;18.50;38.72
78896;HTU21D;68284;59.124;37.910;2023-04-25T06:57:30;18.57;38.49
78896;HTU21D;68284;59.124;37.910;2023-04-25T07:00:52;18.61;38.51
78896;HTU21D;68284;59.124;37.910;2023-04-25T07:04:14;18.67;38.39
78896;HTU21D;68284;59.124;37.910;2023-04-25T07:07:08;18.72;38.43
78896;HTU21D;68284;59.124;37.910;2023-04-25T07:10:10;18.84;38.15
78896;HTU21D;68284;59.124;37.910;2023-04-25T07:13:11;18.89;38.08
78896;HTU21D;68284;59.124;37.910;2023-04-25T07:15:40;18.94;37.91
78896;HTU21D;68284;59.124;37.910;2023-04-25T07:18:16;18.98;37.77
78896;HTU21D;68284;59.124;37.910;2023-04-25T07:20:52;19.07;37.72
78896;HTU21D;68284;59.124;37.910;2023-04-25T07:23:44;19.24;37.69
78896;HTU21D;68284;59.124;37.910;2023-04-25T07:27:02;19.56;37.33
78896;HTU21D;68284;59.124;37.910;2023-04-25T07:34:00;20.16;35.91
78896;HTU21D;68284;59.124;37.910;2023-04-25T07:36:26;20.12;35.51
78896;HTU21D;68284;59.124;37.910;2023-04-25T07:38:53;20.00;35.55
78896;HTU21D;68284;59.124;37.910;2023-04-25T07:41:19;19.91;35.40
78896;HTU21D;68284;59.124;37.910;2023-04-25T07:43:51;19.79;35.17
78896;HTU21D;68284;59.124;37.910;2023-04-25T07:46:19;19.74;35.17
78896;HTU21D;68284;59.124;37.910;2023-04-25T07:48:56;19.77;35.06
78896;HTU21D;68284;59.124;37.910;2023-04-25T07:51:40;19.87;35.11
78896;HTU21D;68284;59.124;37.910;2023-04-25T07:54:34;19.97;34.97
78896;HTU21D;68284;59.124;37.910;2023-04-25T07:58:04;19.97;34.55
78896;HTU21D;68284;59.124;37.910;2023-04-25T08:04:42;19.89;34.25
78896;HTU21D;68284;59.124;37.910;2023-04-25T08:07:13;19.91;33.88
78896;HTU21D;68284;59.124;37.910;2023-04-25T08:09:48;19.91;33.76
78896;HTU21D;68284;59.124;37.910;2023-04-25T08:12:24;20.00;33.47
78896;HTU21D;68284;59.124;37.910;2023-04-25T08:14:52;20.12;33.22
78896;HTU21D;68284;59.124;37.910;2023-04-25T08:17:19;20.25;32.77
78896;HTU21D;68284;59.124;37.910;2023-04-25T08:19:46;20.33;32.54
78896;HTU21D;68284;59.124;37.910;2023-04-25T08:22:23;20.35;32.41
78896;HTU21D;68284;59.124;37.910;2023-04-25T08:25:11;20.32;32.48
78896;HTU21D;68284;59.124;37.910;2023-04-25T08:27:53;20.37;32.42
78896;HTU21D;68284;59.124;37.910;2023-04-25T08:30:36;20.45;32.23
78896;HTU21D;68284;59.124;37.910;2023-04-25T08:37:14;20.83;31.99
78896;HTU21D;68284;59.124;37.910;2023-04-25T08:40:08;21.01;31.69
78896;HTU21D;68284;59.124;37.910;2023-04-25T08:42:57;21.15;31.42
78896;HTU21D;68284;59.124;37.910;2023-04-25T08:45:26;21.28;31.15
78896;HTU21D;68284;59.124;37.910;2023-04-25T08:47:53;21.48;31.05
78896;HTU21D;68284;59.124;37.910;2023-04-25T08:50:22;21.75;30.37
78896;HTU21D;68284;59.124;37.910;2023-04-25T08:52:53;21.96;29.89
78896;HTU21D;68284;59.124;37.910;2023-04-25T08:55:21;22.16;29.68
78896;HTU21D;68284;59.124;37.910;2023-04-25T08:57:51;22.33;29.20
78896;HTU21D;68284;59.124;37.910;2023-04-25T09:00:18;22.47;28.70
78896;HTU21D;68284;59.124;37.910;2023-04-25T09:02:47;22.63;28.31
78896;HTU21D;68284;59.124;37.910;2023-04-25T09:05:13;22.76;27.98
78896;HTU21D;68284;59.124;37.910;2023-04-25T09:07:40;22.79;27.65
78896;HTU21D;68284;59.124;37.910;2023-04-25T09:10:07;22.76;27.43
78896;HTU21D;68284;59.124;37.910;2023-04-25T09:12:36;22.72;27.40
78896;HTU21D;68284;59.124;37.910;2023-04-25T09:15:10;22.70;27.39
78896;HTU21D;68284;59.124;37.910;2023-04-25T09:17:57;22.63;27.45
78896;HTU21D;68284;59.124;37.910;2023-04-25T09:20:30;22.52;27.65
78896;HTU21D;68284;59.124;37.910;2023-04-25T09:23:02;22.44;27.70
78896;HTU21D;68284;59.124;37.910;2023-04-25T09:25:37;22.40;27.81
78896;HTU21D;68284;59.124;37.910;2023-04-25T09:28:08;22.43;27.97
78896;HTU21D;68284;59.124;37.910;2023-04-25T09:30:36;22.46;28.08
78896;HTU21D;68284;59.124;37.910;2023-04-25T09:33:12;22.61;28.05
78896;HTU21D;68284;59.124;37.910;2023-04-25T09:35:44;22.70;28.06
78896;HTU21D;68284;59.124;37.910;2023-04-25T09:38:42;22.70;28.19
78896;HTU21D;68284;59.124;37.910;2023-04-25T09:41:23;22.64;28.36
78896;HTU21D;68284;59.124;37.910;2023-04-25T09:43:51;22.63;28.74
78896;HTU21D;68284;59.124;37.910;2023-04-25T09:46:23;22.57;29.00
78896;HTU21D;68284;59.124;37.910;2023-04-25T09:48:54;22.51;29.40
78896;HTU21D;68284;59.124;37.910;2023-04-25T09:51:34;22.49;29.60
78896;HTU21D;68284;59.124;37.910;2023-04-25T09:54:01;22.46;29.90
78896;HTU21D;68284;59.124;37.910;2023-04-25T09:56:41;22.47;30.14
78896;HTU21D;68284;59.124;37.910;2023-04-25T09:59:11;22.55;30.24
78896;HTU21D;68284;59.124;37.910;2023-04-25T10:01:50;22.65;30.13
78896;HTU21D;68284;59.124;37.910;2023-04-25T10:04:28;22.66;30.22
78896;HTU21D;68284;59.124;37.910;2023-04-25T10:07:12;22.67;30.07
78896;HTU21D;68284;59.124;37.910;2023-04-25T10:09:41;22.65;29.86
78896;HTU21D;68284;59.124;37.910;2023-04-25T10:12:09;22.60;29.71
78896;HTU21D;68284;59.124;37.910;2023-04-25T10:14:36;22.60;29.67
78896;HTU21D;68284;59.124;37.910;2023-04-25T10:17:17;22.73;29.61
78896;HTU21D;68284;59.124;37.910;2023-04-25T10:19:44;22.99;29.38
78896;HTU21D;68284;59.124;37.910;2023-04-25T10:24:43;23.25;28.32
78896;HTU21D;68284;59.124;37.910;2023-04-25T10:27:11;23.26;28.08
78896;HTU21D;68284;59.124;37.910;2023-04-25T10:29:37;23.21;28.03
78896;HTU21D;68284;59.124;37.910;2023-04-25T10:32:04;23.25;27.97
78896;HTU21D;68284;59.124;37.910;2023-04-25T10:34:39;23.35;27.84
78896;HTU21D;68284;59.124;37.910;2023-04-25T10:37:09;23.49;27.74
78896;HTU21D;68284;59.124;37.910;2023-04-25T10:39:44;23.68;27.54
78896;HTU21D;68284;59.124;37.910;2023-04-25T10:42:13;23.75;27.37
78896;HTU21D;68284;59.124;37.910;2023-04-25T10:45:05;23.71;27.30
78896;HTU21D;68284;59.124;37.910;2023-04-25T10:47:56;23.67;27.47
78896;HTU21D;68284;59.124;37.910;2023-04-25T10:50:37;23.83;27.37
78896;HTU21D;68284;59.124;37.910;2023-04-25T10:53:30;24.11;27.26
78896;HTU21D;68284;59.124;37.910;2023-04-25T10:56:16;24.31;27.11
78896;HTU21D;68284;59.124;37.910;2023-04-25T10:58:44;24.30;27.16
78896;HTU21D;68284;59.124;37.910;2023-04-25T11:01:10;24.21;27.21
78896;HTU21D;68284;59.124;37.910;2023-04-25T11:03:43;24.13;27.29
78896;HTU21D;68284;59.124;37.910;2023-04-25T11:06:22;24.01;27.42
78896;HTU21D;68284;59.124;37.910;2023-04-25T11:08:50;23.94;27.64
78896;HTU21D;68284;59.124;37.910;2023-04-25T11:11:18;23.99;27.62
78896;HTU21D;68284;59.124;37.910;2023-04-25T11:13:47;24.10;27.49
78896;HTU21D;68284;59.124;37.910;2023-04-25T11:16:14;24.26;27.42
78896;HTU21D;68284;59.124;37.910;2023-04-25T11:18:44;24.39;27.16
78896;HTU21D;68284;59.124;37.910;2023-04-25T11:21:11;24.44;26.74
78896;HTU21D;68284;59.124;37.910;2023-04-25T11:23:37;24.45;26.86
78896;HTU21D;68284;59.124;37.910;2023-04-25T11:26:04;24.48;26.93
78896;HTU21D;68284;59.124;37.910;2023-04-25T11:28:31;24.56;26.94
78896;HTU21D;68284;59.124;37.910;2023-04-25T11:31:02;24.69;27.51
78896;HTU21D;68284;59.124;37.910;2023-04-25T11:33:30;24.97;26.91
78896;HTU21D;68284;59.124;37.910;2023-04-25T11:35:56;25.34;26.40
78896;HTU21D;68284;59.124;37.910;2023-04-25T11:38:24;25.51;26.01
78896;HTU21D;68284;59.124;37.910;2023-04-25T11:40:52;25.58;25.87
78896;HTU21D;68284;59.124;37.910;2023-04-25T11:43:22;25.66;25.68
78896;HTU21D;68284;59.124;37.910;2023-04-25T11:45:49;26.12;25.20
78896;HTU21D;68284;59.124;37.910;2023-04-25T11:48:17;26.89;24.44
78896;HTU21D;68284;59.124;37.910;2023-04-25T11:50:47;27.79;23.49
78896;HTU21D;68284;59.124;37.910;2023-04-25T11:53:13;28.63;22.49
78896;HTU21D;68284;59.124;37.910;2023-04-25T11:55:39;29.42;21.55
78896;HTU21D;68284;59.124;37.910;2023-04-25T11:58:06;30.20;20.45
78896;HTU21D;68284;59.124;37.910;2023-04-25T12:00:32;30.91;19.40
78896;HTU21D;68284;59.124;37.910;2023-04-25T12:03:01;31.49;18.60
78896;HTU21D;68284;59.124;37.910;2023-04-25T12:05:30;32.00;17.86
78896;HTU21D;68284;59.124;37.910;2023-04-25T12:08:12;32.43;17.37
78896;HTU21D;68284;59.124;37.910;2023-04-25T12:10:41;32.83;16.72
78896;HTU21D;68284;59.124;37.910;2023-04-25T12:15:47;33.64;15.73
78896;HTU21D;68284;59.124;37.910;2023-04-25T12:18:23;33.96;15.23
78896;HTU21D;68284;59.124;37.910;2023-04-25T12:20:50;34.10;16.22
78896;HTU21D;68284;59.124;37.910;2023-04-25T12:23:25;34.22;15.01
78896;HTU21D;68284;59.124;37.910;2023-04-25T12:25:52;34.41;14.56
78896;HTU21D;68284;59.124;37.910;2023-04-25T12:28:23;34.70;14.10
78896;HTU21D;68284;59.124;37.910;2023-04-25T12:31:03;35.04;13.81
78896;HTU21D;68284;59.124;37.910;2023-04-25T12:33:37;35.35;13.92
78896;HTU21D;68284;59.124;37.910;2023-04-25T12:36:04;35.57;13.21
78896;HTU21D;68284;59.124;37.910;2023-04-25T12:38:38;35.73;12.79
78896;HTU21D;68284;59.124;37.910;2023-04-25T12:41:05;35.84;12.60
78896;HTU21D;68284;59.124;37.910;2023-04-25T12:43:31;35.95;12.32
78896;HTU21D;68284;59.124;37.910;2023-04-25T12:46:18;36.10;12.12
78896;HTU21D;68284;59.124;37.910;2023-04-25T12:48:44;36.17;11.91
78896;HTU21D;68284;59.124;37.910;2023-04-25T12:51:10;36.13;11.43
78896;HTU21D;68284;59.124;37.910;2023-04-25T12:53:36;36.00;11.31
78896;HTU21D;68284;59.124;37.910;2023-04-25T12:56:04;35.37;11.73
78896;HTU21D;68284;59.124;37.910;2023-04-25T12:58:35;34.85;11.87
78896;HTU21D;68284;59.124;37.910;2023-04-25T13:01:05;34.79;12.10
78896;HTU21D;68284;59.124;37.910;2023-04-25T13:03:31;35.00;12.03
78896;HTU21D;68284;59.124;37.910;2023-04-25T13:05:57;35.26;11.69
78896;HTU21D;68284;59.124;37.910;2023-04-25T13:08:24;35.54;11.40
78896;HTU21D;68284;59.124;37.910;2023-04-25T13:10:50;35.72;11.26
78896;HTU21D;68284;59.124;37.910;2023-04-25T13:13:16;35.86;11.08
78896;HTU21D;68284;59.124;37.910;2023-04-25T13:15:43;35.99;10.85
78896;HTU21D;68284;59.124;37.910;2023-04-25T13:18:09;36.13;10.68
78896;HTU21D;68284;59.124;37.910;2023-04-25T13:20:35;36.28;10.65
78896;HTU21D;68284;59.124;37.910;2023-04-25T13:23:01;36.37;10.71
78896;HTU21D;68284;59.124;37.910;2023-04-25T13:25:27;36.45;10.49
78896;HTU21D;68284;59.124;37.910;2023-04-25T13:27:53;36.61;10.18
78896;HTU21D;68284;59.124;37.910;2023-04-25T13:30:20;36.76;9.88
78896;HTU21D;68284;59.124;37.910;2023-04-25T13:32:47;36.76;9.70
78896;HTU21D;68284;59.124;37.910;2023-04-25T13:35:13;36.57;9.68
78896;HTU21D;68284;59.124;37.910;2023-04-25T13:37:39;36.33;9.63
78896;HTU21D;68284;59.124;37.910;2023-04-25T13:40:08;36.03;9.97
78896;HTU21D;68284;59.124;37.910;2023-04-25T13:42:38;36.02;9.96
78896;HTU21D;68284;59.124;37.910;2023-04-25T13:45:05;36.19;9.75
78896;HTU21D;68284;59.124;37.910;2023-04-25T13:47:32;36.34;9.59
78896;HTU21D;68284;59.124;37.910;2023-04-25T13:49:58;36.16;9.72
78896;HTU21D;68284;59.124;37.910;2023-04-25T13:52:25;36.10;9.68
78896;HTU21D;68284;59.124;37.910;2023-04-25T13:54:51;36.01;9.51
78896;HTU21D;68284;59.124;37.910;2023-04-25T13:57:18;35.82;9.54
78896;HTU21D;68284;59.124;37.910;2023-04-25T13:59:44;35.75;9.51
78896;HTU21D;68284;59.124;37.910;2023-04-25T14:02:13;35.75;9.34
78896;HTU21D;68284;59.124;37.910;2023-04-25T14:04:40;35.58;9.39
78896;HTU21D;68284;59.124;37.910;2023-04-25T14:07:07;35.51;9.35
78896;HTU21D;68284;59.124;37.910;2023-04-25T14:09:33;35.48;9.24
78896;HTU21D;68284;59.124;37.910;2023-04-25T14:12:00;35.58;9.11
78896;HTU21D;68284;59.124;37.910;2023-04-25T14:14:26;35.81;8.95
78896;HTU21D;68284;59.124;37.910;2023-04-25T14:16:53;36.01;8.75
78896;HTU21D;68284;59.124;37.910;2023-04-25T14:19:20;36.11;8.71
78896;HTU21D;68284;59.124;37.910;2023-04-25T14:21:46;36.10;8.74
78896;HTU21D;68284;59.124;37.910;2023-04-25T14:24:13;35.75;8.81
78896;HTU21D;68284;59.124;37.910;2023-04-25T14:26:39;35.22;8.98
78896;HTU21D;68284;59.124;37.910;2023-04-25T14:29:07;35.04;8.92
78896;HTU21D;68284;59.124;37.910;2023-04-25T14:31:34;35.21;8.72
78896;HTU21D;68284;59.124;37.910;2023-04-25T14:34:01;35.29;8.55
78896;HTU21D;68284;59.124;37.910;2023-04-25T14:36:29;35.38;8.56
78896;HTU21D;68284;59.124;37.910;2023-04-25T14:38:56;35.51;8.53
78896;HTU21D;68284;59.124;37.910;2023-04-25T14:41:23;35.42;8.55
78896;HTU21D;68284;59.124;37.910;2023-04-25T14:43:49;35.09;8.81
78896;HTU21D;68284;59.124;37.910;2023-04-25T14:46:16;34.71;9.12
78896;HTU21D;68284;59.124;37.910;2023-04-25T14:48:42;34.32;9.50
78896;HTU21D;68284;59.124;37.910;2023-04-25T14:51:08;33.99;9.68
78896;HTU21D;68284;59.124;37.910;2023-04-25T14:53:37;33.57;9.98
78896;HTU21D;68284;59.124;37.910;2023-04-25T14:56:04;33.19;10.22
78896;HTU21D;68284;59.124;37.910;2023-04-25T14:58:31;32.84;10.27
78896;HTU21D;68284;59.124;37.910;2023-04-25T15:01:03;32.50;10.54
78896;HTU21D;68284;59.124;37.910;2023-04-25T15:03:29;32.27;10.67
78896;HTU21D;68284;59.124;37.910;2023-04-25T15:05:55;32.11;11.18
78896;HTU21D;68284;59.124;37.910;2023-04-25T15:08:21;32.08;11.14
78896;HTU21D;68284;59.124;37.910;2023-04-25T15:10:48;32.07;11.15
78896;HTU21D;68284;59.124;37.910;2023-04-25T15:13:14;31.92;11.29
78896;HTU21D;68284;59.124;37.910;2023-04-25T15:15:41;31.65;11.61
78896;HTU21D;68284;59.124;37.910;2023-04-25T15:18:07;31.41;11.76
78896;HTU21D;68284;59.124;37.910;2023-04-25T15:20:34;31.19;11.88
78896;HTU21D;68284;59.124;37.910;2023-04-25T15:23:01;31.01;12.08
78896;HTU21D;68284;59.124;37.910;2023-04-25T15:25:29;30.92;12.28
78896;HTU21D;68284;59.124;37.910;2023-04-25T15:27:55;30.80;12.28
78896;HTU21D;68284;59.124;37.910;2023-04-25T15:30:21;30.64;12.44
78896;HTU21D;68284;59.124;37.910;2023-04-25T15:32:47;30.62;12.56
78896;HTU21D;68284;59.124;37.910;2023-04-25T15:35:14;30.59;12.59
78896;HTU21D;68284;59.124;37.910;2023-04-25T15:37:40;30.49;12.76
78896;HTU21D;68284;59.124;37.910;2023-04-25T15:40:12;30.50;12.88
78896;HTU21D;68284;59.124;37.910;2023-04-25T15:42:44;30.44;13.03
78896;HTU21D;68284;59.124;37.910;2023-04-25T15:45:13;30.34;13.22
78896;HTU21D;68284;59.124;37.910;2023-04-25T15:47:40;30.22;13.38
78896;HTU21D;68284;59.124;37.910;2023-04-25T15:50:08;30.09;13.50
78896;HTU21D;68284;59.124;37.910;2023-04-25T15:52:37;29.94;13.71
78896;HTU21D;68284;59.124;37.910;2023-04-25T15:55:04;29.71;13.83
78896;HTU21D;68284;59.124;37.910;2023-04-25T15:57:32;29.46;14.08
78896;HTU21D;68284;59.124;37.910;2023-04-25T15:59:59;29.27;14.26
78896;HTU21D;68284;59.124;37.910;2023-04-25T16:02:25;29.05;14.50
78896;HTU21D;68284;59.124;37.910;2023-04-25T16:04:51;28.86;14.71
78896;HTU21D;68284;59.124;37.910;2023-04-25T16:07:18;28.61;15.03
78896;HTU21D;68284;59.124;37.910;2023-04-25T16:09:44;28.33;15.36